sensor_id;sensor_type;location;lat;lon;timestamp;P1;durP1;ratioP1;P2;durP2;ratioP2
65358;SDS011;52491;45.900;6.346;2023-05-07T00:01:01;2.95;;;2.35;;
65358;SDS011;52491;45.900;6.346;2023-05-07T00:03:27;2.63;;;1.73;;
65358;SDS011;52491;45.900;6.346;2023-05-07T00:05:53;2.75;;;1.70;;
65358;SDS011;52491;45.900;6.346;2023-05-07T00:08:19;8.60;;;2.17;;
65358;SDS011;52491;45.900;6.346;2023-05-07T00:10:45;9.50;;;2.38;;
65358;SDS011;52491;45.900;6.346;2023-05-07T00:13:11;4.60;;;1.88;;
65358;SDS011;52491;45.900;6.346;2023-05-07T00:15:37;4.95;;;2.10;;
65358;SDS011;52491;45.900;6.346;2023-05-07T00:18:02;3.88;;;1.90;;
65358;SDS011;52491;45.900;6.346;2023-05-07T00:20:28;7.00;;;1.95;;
65358;SDS011;52491;45.900;6.346;2023-05-07T00:22:54;2.30;;;1.67;;
65358;SDS011;52491;45.900;6.346;2023-05-07T00:25:19;2.30;;;1.98;;
65358;SDS011;52491;45.900;6.346;2023-05-07T00:27:45;4.97;;;1.88;;
65358;SDS011;52491;45.900;6.346;2023-05-07T00:30:10;3.50;;;2.08;;
65358;SDS011;52491;45.900;6.346;2023-05-07T00:32:36;1.80;;;1.60;;
65358;SDS011;52491;45.900;6.346;2023-05-07T00:35:03;1.77;;;1.40;;
65358;SDS011;52491;45.900;6.346;2023-05-07T00:37:29;3.28;;;1.60;;
65358;SDS011;52491;45.900;6.346;2023-05-07T00:39:55;3.95;;;2.00;;
65358;SDS011;52491;45.900;6.346;2023-05-07T00:42:20;3.33;;;2.15;;
65358;SDS011;52491;45.900;6.346;2023-05-07T00:44:46;3.17;;;2.47;;
65358;SDS011;52491;45.900;6.346;2023-05-07T00:47:12;4.88;;;1.95;;
65358;SDS011;52491;45.900;6.346;2023-05-07T00:49:39;3.80;;;1.63;;
65358;SDS011;52491;45.900;6.346;2023-05-07T00:52:11;3.30;;;2.05;;
65358;SDS011;52491;45.900;6.346;2023-05-07T00:54:40;4.45;;;1.90;;
65358;SDS011;52491;45.900;6.346;2023-05-07T00:57:06;3.17;;;1.80;;
65358;SDS011;52491;45.900;6.346;2023-05-07T00:59:34;2.75;;;1.75;;
65358;SDS011;52491;45.900;6.346;2023-05-07T01:02:00;1.80;;;1.52;;
65358;SDS011;52491;45.900;6.346;2023-05-07T01:04:26;4.65;;;1.92;;
65358;SDS011;52491;45.900;6.346;2023-05-07T01:06:52;3.47;;;1.67;;
65358;SDS011;52491;45.900;6.346;2023-05-07T01:09:20;3.35;;;2.17;;
65358;SDS011;52491;45.900;6.346;2023-05-07T01:11:47;2.17;;;1.83;;
65358;SDS011;52491;45.900;6.346;2023-05-07T01:14:14;2.67;;;1.50;;
65358;SDS011;52491;45.900;6.346;2023-05-07T01:16:40;2.03;;;1.55;;
65358;SDS011;52491;45.900;6.346;2023-05-07T01:19:07;3.53;;;1.20;;
65358;SDS011;52491;45.900;6.346;2023-05-07T01:21:33;1.15;;;0.88;;
65358;SDS011;52491;45.900;6.346;2023-05-07T01:24:02;3.10;;;1.75;;
65358;SDS011;52491;45.900;6.346;2023-05-07T01:26:28;9.52;;;2.47;;
65358;SDS011;52491;45.900;6.346;2023-05-07T01:28:54;1.98;;;1.50;;
65358;SDS011;52491;45.900;6.346;2023-05-07T01:31:19;1.58;;;1.25;;
65358;SDS011;52491;45.900;6.346;2023-05-07T01:33:46;1.23;;;1.13;;
65358;SDS011;52491;45.900;6.346;2023-05-07T01:36:14;2.35;;;1.50;;
65358;SDS011;52491;45.900;6.346;2023-05-07T01:38:40;2.13;;;1.13;;
65358;SDS011;52491;45.900;6.346;2023-05-07T01:41:07;2.30;;;1.33;;
65358;SDS011;52491;45.900;6.346;2023-05-07T01:43:32;2.17;;;1.50;;
65358;SDS011;52491;45.900;6.346;2023-05-07T01:45:58;2.40;;;1.50;;
65358;SDS011;52491;45.900;6.346;2023-05-07T01:48:26;2.28;;;1.25;;
65358;SDS011;52491;45.900;6.346;2023-05-07T01:50:52;4.18;;;1.60;;
65358;SDS011;52491;45.900;6.346;2023-05-07T01:53:18;1.92;;;1.30;;
65358;SDS011;52491;45.900;6.346;2023-05-07T01:55:44;3.13;;;1.00;;
65358;SDS011;52491;45.900;6.346;2023-05-07T01:58:10;2.58;;;1.48;;
65358;SDS011;52491;45.900;6.346;2023-05-07T02:00:36;2.45;;;1.35;;
65358;SDS011;52491;45.900;6.346;2023-05-07T02:03:01;1.58;;;1.40;;
65358;SDS011;52491;45.900;6.346;2023-05-07T02:05:27;1.45;;;1.17;;
65358;SDS011;52491;45.900;6.346;2023-05-07T02:07:52;2.22;;;1.35;;
65358;SDS011;52491;45.900;6.346;2023-05-07T02:10:18;3.33;;;1.70;;
65358;SDS011;52491;45.900;6.346;2023-05-07T02:12:43;2.50;;;1.45;;
65358;SDS011;52491;45.900;6.346;2023-05-07T02:15:09;3.97;;;1.73;;
65358;SDS011;52491;45.900;6.346;2023-05-07T02:17:38;2.30;;;1.38;;
65358;SDS011;52491;45.900;6.346;2023-05-07T02:20:23;1.15;;;1.05;;
65358;SDS011;52491;45.900;6.346;2023-05-07T02:22:49;3.22;;;1.10;;
65358;SDS011;52491;45.900;6.346;2023-05-07T02:25:14;1.50;;;1.15;;
65358;SDS011;52491;45.900;6.346;2023-05-07T02:27:40;3.65;;;1.25;;
65358;SDS011;52491;45.900;6.346;2023-05-07T02:30:06;2.25;;;1.63;;
65358;SDS011;52491;45.900;6.346;2023-05-07T02:32:32;1.75;;;1.27;;
65358;SDS011;52491;45.900;6.346;2023-05-07T02:34:57;1.25;;;1.15;;
65358;SDS011;52491;45.900;6.346;2023-05-07T02:37:23;2.65;;;1.15;;
65358;SDS011;52491;45.900;6.346;2023-05-07T02:39:48;1.10;;;1.00;;
65358;SDS011;52491;45.900;6.346;2023-05-07T02:42:17;1.40;;;1.08;;
65358;SDS011;52491;45.900;6.346;2023-05-07T02:44:43;1.73;;;0.88;;
65358;SDS011;52491;45.900;6.346;2023-05-07T02:47:08;1.50;;;1.23;;
65358;SDS011;52491;45.900;6.346;2023-05-07T02:49:34;1.27;;;1.02;;
65358;SDS011;52491;45.900;6.346;2023-05-07T02:52:00;1.30;;;1.20;;
65358;SDS011;52491;45.900;6.346;2023-05-07T02:54:25;1.77;;;1.15;;
65358;SDS011;52491;45.900;6.346;2023-05-07T02:56:51;1.77;;;1.48;;
65358;SDS011;52491;45.900;6.346;2023-05-07T02:59:16;0.80;;;0.80;;
65358;SDS011;52491;45.900;6.346;2023-05-07T03:01:42;1.00;;;1.00;;
65358;SDS011;52491;45.900;6.346;2023-05-07T03:04:10;1.48;;;0.95;;
65358;SDS011;52491;45.900;6.346;2023-05-07T03:06:36;1.20;;;1.10;;
65358;SDS011;52491;45.900;6.346;2023-05-07T03:09:01;1.50;;;0.80;;
65358;SDS011;52491;45.900;6.346;2023-05-07T03:11:27;1.65;;;1.33;;
65358;SDS011;52491;45.900;6.346;2023-05-07T03:13:52;1.58;;;0.90;;
65358;SDS011;52491;45.900;6.346;2023-05-07T03:16:18;1.20;;;0.90;;
65358;SDS011;52491;45.900;6.346;2023-05-07T03:18:44;1.83;;;1.33;;
65358;SDS011;52491;45.900;6.346;2023-05-07T03:21:09;1.80;;;1.10;;
65358;SDS011;52491;45.900;6.346;2023-05-07T03:23:35;1.15;;;0.90;;
65358;SDS011;52491;45.900;6.346;2023-05-07T03:26:00;1.52;;;1.10;;
65358;SDS011;52491;45.900;6.346;2023-05-07T03:28:26;1.42;;;1.02;;
65358;SDS011;52491;45.900;6.346;2023-05-07T03:30:51;1.45;;;1.02;;
65358;SDS011;52491;45.900;6.346;2023-05-07T03:33:17;1.25;;;0.90;;
65358;SDS011;52491;45.900;6.346;2023-05-07T03:35:43;0.95;;;0.90;;
65358;SDS011;52491;45.900;6.346;2023-05-07T03:38:08;1.38;;;1.10;;
65358;SDS011;52491;45.900;6.346;2023-05-07T03:40:34;1.00;;;0.77;;
65358;SDS011;52491;45.900;6.346;2023-05-07T03:43:00;1.10;;;1.05;;
65358;SDS011;52491;45.900;6.346;2023-05-07T03:45:25;2.90;;;1.42;;
65358;SDS011;52491;45.900;6.346;2023-05-07T03:47:51;1.05;;;0.77;;
65358;SDS011;52491;45.900;6.346;2023-05-07T03:50:17;1.67;;;1.20;;
65358;SDS011;52491;45.900;6.346;2023-05-07T03:52:42;1.77;;;0.88;;
65358;SDS011;52491;45.900;6.346;2023-05-07T03:55:08;2.60;;;1.20;;
65358;SDS011;52491;45.900;6.346;2023-05-07T03:57:34;2.67;;;1.67;;
65358;SDS011;52491;45.900;6.346;2023-05-07T04:00:00;1.10;;;0.88;;
65358;SDS011;52491;45.900;6.346;2023-05-07T04:02:25;5.25;;;1.17;;
65358;SDS011;52491;45.900;6.346;2023-05-07T04:04:51;2.00;;;0.90;;
65358;SDS011;52491;45.900;6.346;2023-05-07T04:07:17;1.33;;;1.00;;
65358;SDS011;52491;45.900;6.346;2023-05-07T04:09:42;1.63;;;1.10;;
65358;SDS011;52491;45.900;6.346;2023-05-07T04:12:08;1.38;;;1.15;;
65358;SDS011;52491;45.900;6.346;2023-05-07T04:14:33;1.38;;;1.00;;
65358;SDS011;52491;45.900;6.346;2023-05-07T04:16:59;1.55;;;0.93;;
65358;SDS011;52491;45.900;6.346;2023-05-07T04:19:25;1.63;;;1.00;;
65358;SDS011;52491;45.900;6.346;2023-05-07T04:21:50;1.52;;;0.80;;
65358;SDS011;52491;45.900;6.346;2023-05-07T04:24:16;1.60;;;1.10;;
65358;SDS011;52491;45.900;6.346;2023-05-07T04:26:41;2.38;;;0.90;;
65358;SDS011;52491;45.900;6.346;2023-05-07T04:29:07;1.92;;;0.77;;
65358;SDS011;52491;45.900;6.346;2023-05-07T04:31:32;2.25;;;0.95;;
65358;SDS011;52491;45.900;6.346;2023-05-07T04:33:58;2.83;;;0.82;;
65358;SDS011;52491;45.900;6.346;2023-05-07T04:36:24;3.50;;;1.55;;
65358;SDS011;52491;45.900;6.346;2023-05-07T04:38:52;1.35;;;0.77;;
65358;SDS011;52491;45.900;6.346;2023-05-07T04:41:18;1.13;;;0.77;;
65358;SDS011;52491;45.900;6.346;2023-05-07T04:43:44;1.23;;;1.00;;
65358;SDS011;52491;45.900;6.346;2023-05-07T04:46:10;1.33;;;0.95;;
65358;SDS011;52491;45.900;6.346;2023-05-07T04:48:36;1.00;;;0.90;;
65358;SDS011;52491;45.900;6.346;2023-05-07T04:51:01;0.98;;;0.88;;
65358;SDS011;52491;45.900;6.346;2023-05-07T04:53:27;1.15;;;0.80;;
65358;SDS011;52491;45.900;6.346;2023-05-07T04:55:56;1.98;;;0.80;;
65358;SDS011;52491;45.900;6.346;2023-05-07T04:58:22;2.38;;;0.90;;
65358;SDS011;52491;45.900;6.346;2023-05-07T05:00:48;0.77;;;0.77;;
65358;SDS011;52491;45.900;6.346;2023-05-07T05:03:14;0.88;;;0.75;;
65358;SDS011;52491;45.900;6.346;2023-05-07T05:05:40;2.00;;;1.10;;
65358;SDS011;52491;45.900;6.346;2023-05-07T05:08:05;1.45;;;1.25;;
65358;SDS011;52491;45.900;6.346;2023-05-07T05:10:31;1.15;;;0.90;;
65358;SDS011;52491;45.900;6.346;2023-05-07T05:12:57;0.73;;;0.70;;
65358;SDS011;52491;45.900;6.346;2023-05-07T05:15:22;0.60;;;0.60;;
65358;SDS011;52491;45.900;6.346;2023-05-07T05:17:48;2.10;;;1.00;;
65358;SDS011;52491;45.900;6.346;2023-05-07T05:20:13;1.70;;;0.77;;
65358;SDS011;52491;45.900;6.346;2023-05-07T05:22:39;3.05;;;0.80;;
65358;SDS011;52491;45.900;6.346;2023-05-07T05:25:05;1.90;;;1.00;;
65358;SDS011;52491;45.900;6.346;2023-05-07T05:27:31;1.45;;;1.00;;
65358;SDS011;52491;45.900;6.346;2023-05-07T05:29:56;1.40;;;0.90;;
65358;SDS011;52491;45.900;6.346;2023-05-07T05:32:22;0.98;;;0.77;;
65358;SDS011;52491;45.900;6.346;2023-05-07T05:34:47;1.92;;;0.82;;
65358;SDS011;52491;45.900;6.346;2023-05-07T05:37:13;0.95;;;0.80;;
65358;SDS011;52491;45.900;6.346;2023-05-07T05:39:38;0.93;;;0.70;;
65358;SDS011;52491;45.900;6.346;2023-05-07T05:42:04;0.80;;;0.80;;
65358;SDS011;52491;45.900;6.346;2023-05-07T05:44:30;0.88;;;0.73;;
65358;SDS011;52491;45.900;6.346;2023-05-07T05:46:55;2.63;;;1.13;;
65358;SDS011;52491;45.900;6.346;2023-05-07T05:49:22;0.60;;;0.60;;
65358;SDS011;52491;45.900;6.346;2023-05-07T05:51:48;1.20;;;0.68;;
65358;SDS011;52491;45.900;6.346;2023-05-07T05:54:13;0.93;;;0.93;;
65358;SDS011;52491;45.900;6.346;2023-05-07T05:56:40;2.40;;;0.70;;
65358;SDS011;52491;45.900;6.346;2023-05-07T05:59:06;0.93;;;0.82;;
65358;SDS011;52491;45.900;6.346;2023-05-07T06:01:32;1.10;;;0.70;;
65358;SDS011;52491;45.900;6.346;2023-05-07T06:03:58;1.20;;;0.73;;
65358;SDS011;52491;45.900;6.346;2023-05-07T06:06:23;0.70;;;0.70;;
65358;SDS011;52491;45.900;6.346;2023-05-07T06:08:49;0.90;;;0.80;;
65358;SDS011;52491;45.900;6.346;2023-05-07T06:11:14;0.75;;;0.60;;
65358;SDS011;52491;45.900;6.346;2023-05-07T06:13:40;1.42;;;0.90;;
65358;SDS011;52491;45.900;6.346;2023-05-07T06:16:06;0.80;;;0.80;;
65358;SDS011;52491;45.900;6.346;2023-05-07T06:18:31;2.20;;;1.00;;
65358;SDS011;52491;45.900;6.346;2023-05-07T06:20:57;1.15;;;0.75;;
65358;SDS011;52491;45.900;6.346;2023-05-07T06:23:22;3.13;;;0.93;;
65358;SDS011;52491;45.900;6.346;2023-05-07T06:25:48;2.00;;;0.90;;
65358;SDS011;52491;45.900;6.346;2023-05-07T06:28:17;1.25;;;0.65;;
65358;SDS011;52491;45.900;6.346;2023-05-07T06:30:43;1.23;;;0.60;;
65358;SDS011;52491;45.900;6.346;2023-05-07T06:33:08;0.77;;;0.52;;
65358;SDS011;52491;45.900;6.346;2023-05-07T06:35:34;0.80;;;0.80;;
65358;SDS011;52491;45.900;6.346;2023-05-07T06:38:00;0.90;;;0.60;;
65358;SDS011;52491;45.900;6.346;2023-05-07T06:40:25;0.88;;;0.80;;
65358;SDS011;52491;45.900;6.346;2023-05-07T06:42:51;0.75;;;0.75;;
65358;SDS011;52491;45.900;6.346;2023-05-07T06:45:17;0.70;;;0.70;;
65358;SDS011;52491;45.900;6.346;2023-05-07T06:47:42;2.72;;;1.10;;
65358;SDS011;52491;45.900;6.346;2023-05-07T06:50:08;1.33;;;0.80;;
65358;SDS011;52491;45.900;6.346;2023-05-07T06:52:34;0.80;;;0.80;;
65358;SDS011;52491;45.900;6.346;2023-05-07T06:55:00;1.27;;;0.80;;
65358;SDS011;52491;45.900;6.346;2023-05-07T06:57:26;2.03;;;0.90;;
65358;SDS011;52491;45.900;6.346;2023-05-07T06:59:51;1.48;;;0.77;;
65358;SDS011;52491;45.900;6.346;2023-05-07T07:02:17;0.88;;;0.88;;
65358;SDS011;52491;45.900;6.346;2023-05-07T07:04:42;2.88;;;0.93;;
65358;SDS011;52491;45.900;6.346;2023-05-07T07:07:09;3.08;;;0.93;;
65358;SDS011;52491;45.900;6.346;2023-05-07T07:09:35;0.75;;;0.75;;
65358;SDS011;52491;45.900;6.346;2023-05-07T07:12:01;1.25;;;0.70;;
65358;SDS011;52491;45.900;6.346;2023-05-07T07:14:26;1.52;;;0.98;;
65358;SDS011;52491;45.900;6.346;2023-05-07T07:16:52;1.58;;;0.75;;
65358;SDS011;52491;45.900;6.346;2023-05-07T07:19:17;2.17;;;0.98;;
65358;SDS011;52491;45.900;6.346;2023-05-07T07:21:45;3.40;;;1.08;;
65358;SDS011;52491;45.900;6.346;2023-05-07T07:24:11;1.13;;;0.85;;
65358;SDS011;52491;45.900;6.346;2023-05-07T07:26:37;1.27;;;1.08;;
65358;SDS011;52491;45.900;6.346;2023-05-07T07:29:05;1.70;;;0.95;;
65358;SDS011;52491;45.900;6.346;2023-05-07T07:31:31;1.10;;;0.90;;
65358;SDS011;52491;45.900;6.346;2023-05-07T07:33:57;5.75;;;1.20;;
65358;SDS011;52491;45.900;6.346;2023-05-07T07:36:23;1.85;;;0.73;;
65358;SDS011;52491;45.900;6.346;2023-05-07T07:38:48;2.15;;;1.05;;
65358;SDS011;52491;45.900;6.346;2023-05-07T07:41:14;2.53;;;1.10;;
65358;SDS011;52491;45.900;6.346;2023-05-07T07:43:39;3.25;;;1.10;;
65358;SDS011;52491;45.900;6.346;2023-05-07T07:46:05;3.88;;;1.20;;
65358;SDS011;52491;45.900;6.346;2023-05-07T07:48:30;1.50;;;0.85;;
65358;SDS011;52491;45.900;6.346;2023-05-07T07:50:56;0.93;;;0.80;;
65358;SDS011;52491;45.900;6.346;2023-05-07T07:53:21;16.90;;;1.65;;
65358;SDS011;52491;45.900;6.346;2023-05-07T07:55:47;2.33;;;1.67;;
65358;SDS011;52491;45.900;6.346;2023-05-07T07:58:12;6.05;;;1.23;;
65358;SDS011;52491;45.900;6.346;2023-05-07T08:00:38;2.15;;;1.17;;
65358;SDS011;52491;45.900;6.346;2023-05-07T08:03:03;4.03;;;0.90;;
65358;SDS011;52491;45.900;6.346;2023-05-07T08:05:30;2.80;;;1.63;;
65358;SDS011;52491;45.900;6.346;2023-05-07T08:07:55;1.00;;;0.88;;
65358;SDS011;52491;45.900;6.346;2023-05-07T08:10:21;7.95;;;1.55;;
65358;SDS011;52491;45.900;6.346;2023-05-07T08:12:48;1.60;;;0.90;;
65358;SDS011;52491;45.900;6.346;2023-05-07T08:15:14;3.28;;;1.30;;
65358;SDS011;52491;45.900;6.346;2023-05-07T08:17:40;4.78;;;1.25;;
65358;SDS011;52491;45.900;6.346;2023-05-07T08:20:07;2.58;;;1.13;;
65358;SDS011;52491;45.900;6.346;2023-05-07T08:22:36;8.85;;;1.15;;
65358;SDS011;52491;45.900;6.346;2023-05-07T08:25:02;3.20;;;1.15;;
65358;SDS011;52491;45.900;6.346;2023-05-07T08:27:28;4.30;;;1.45;;
65358;SDS011;52491;45.900;6.346;2023-05-07T08:29:54;3.35;;;1.17;;
65358;SDS011;52491;45.900;6.346;2023-05-07T08:32:20;1.80;;;1.08;;
65358;SDS011;52491;45.900;6.346;2023-05-07T08:34:45;6.25;;;1.10;;
65358;SDS011;52491;45.900;6.346;2023-05-07T08:37:11;3.75;;;1.10;;
65358;SDS011;52491;45.900;6.346;2023-05-07T08:39:37;3.33;;;1.70;;
65358;SDS011;52491;45.900;6.346;2023-05-07T08:42:02;1.48;;;1.17;;
65358;SDS011;52491;45.900;6.346;2023-05-07T08:44:33;4.18;;;0.85;;
65358;SDS011;52491;45.900;6.346;2023-05-07T08:47:00;4.80;;;1.52;;
65358;SDS011;52491;45.900;6.346;2023-05-07T08:49:27;2.50;;;0.98;;
65358;SDS011;52491;45.900;6.346;2023-05-07T08:51:54;4.93;;;1.63;;
65358;SDS011;52491;45.900;6.346;2023-05-07T08:54:21;2.08;;;1.33;;
65358;SDS011;52491;45.900;6.346;2023-05-07T08:56:48;2.80;;;1.00;;
65358;SDS011;52491;45.900;6.346;2023-05-07T08:59:15;3.38;;;1.20;;
65358;SDS011;52491;45.900;6.346;2023-05-07T09:01:40;2.78;;;1.20;;
65358;SDS011;52491;45.900;6.346;2023-05-07T09:04:06;3.05;;;0.88;;
65358;SDS011;52491;45.900;6.346;2023-05-07T09:06:33;2.90;;;1.00;;
65358;SDS011;52491;45.900;6.346;2023-05-07T09:09:00;3.38;;;1.13;;
65358;SDS011;52491;45.900;6.346;2023-05-07T09:11:26;3.97;;;1.38;;
65358;SDS011;52491;45.900;6.346;2023-05-07T09:13:55;1.50;;;1.30;;
65358;SDS011;52491;45.900;6.346;2023-05-07T09:16:24;4.53;;;1.40;;
65358;SDS011;52491;45.900;6.346;2023-05-07T09:18:51;1.95;;;1.20;;
65358;SDS011;52491;45.900;6.346;2023-05-07T09:21:19;1.02;;;0.95;;
65358;SDS011;52491;45.900;6.346;2023-05-07T09:23:45;1.00;;;0.90;;
65358;SDS011;52491;45.900;6.346;2023-05-07T09:26:12;2.65;;;1.50;;
65358;SDS011;52491;45.900;6.346;2023-05-07T09:28:40;3.33;;;0.90;;
65358;SDS011;52491;45.900;6.346;2023-05-07T09:31:09;3.28;;;1.38;;
65358;SDS011;52491;45.900;6.346;2023-05-07T09:33:36;3.22;;;1.27;;
65358;SDS011;52491;45.900;6.346;2023-05-07T09:36:06;6.35;;;1.52;;
65358;SDS011;52491;45.900;6.346;2023-05-07T09:38:33;6.97;;;1.70;;
65358;SDS011;52491;45.900;6.346;2023-05-07T09:41:08;8.95;;;1.05;;
65358;SDS011;52491;45.900;6.346;2023-05-07T09:43:35;7.93;;;1.60;;
65358;SDS011;52491;45.900;6.346;2023-05-07T09:46:05;2.70;;;0.98;;
65358;SDS011;52491;45.900;6.346;2023-05-07T09:48:37;10.70;;;1.30;;
65358;SDS011;52491;45.900;6.346;2023-05-07T09:51:28;7.00;;;1.45;;
65358;SDS011;52491;45.900;6.346;2023-05-07T09:53:54;4.25;;;1.33;;
65358;SDS011;52491;45.900;6.346;2023-05-07T09:56:21;6.03;;;1.38;;
65358;SDS011;52491;45.900;6.346;2023-05-07T09:58:48;1.50;;;1.10;;
65358;SDS011;52491;45.900;6.346;2023-05-07T10:01:16;2.38;;;1.23;;
65358;SDS011;52491;45.900;6.346;2023-05-07T10:03:44;1.05;;;0.95;;
65358;SDS011;52491;45.900;6.346;2023-05-07T10:06:11;7.93;;;1.90;;
65358;SDS011;52491;45.900;6.346;2023-05-07T10:08:38;3.17;;;1.27;;
65358;SDS011;52491;45.900;6.346;2023-05-07T10:11:04;6.53;;;1.20;;
65358;SDS011;52491;45.900;6.346;2023-05-07T10:13:31;5.15;;;2.10;;
65358;SDS011;52491;45.900;6.346;2023-05-07T10:16:01;4.55;;;1.52;;
65358;SDS011;52491;45.900;6.346;2023-05-07T10:18:28;2.58;;;1.23;;
65358;SDS011;52491;45.900;6.346;2023-05-07T10:20:59;9.13;;;1.25;;
65358;SDS011;52491;45.900;6.346;2023-05-07T10:23:33;8.93;;;2.25;;
65358;SDS011;52491;45.900;6.346;2023-05-07T10:26:00;11.07;;;2.83;;
65358;SDS011;52491;45.900;6.346;2023-05-07T10:28:29;9.15;;;4.13;;
65358;SDS011;52491;45.900;6.346;2023-05-07T10:33:51;27.35;;;11.43;;
65358;SDS011;52491;45.900;6.346;2023-05-07T10:36:19;26.38;;;10.45;;
65358;SDS011;52491;45.900;6.346;2023-05-07T10:38:46;25.10;;;11.10;;
65358;SDS011;52491;45.900;6.346;2023-05-07T10:41:12;34.55;;;13.55;;
65358;SDS011;52491;45.900;6.346;2023-05-07T10:43:41;28.13;;;12.20;;
65358;SDS011;52491;45.900;6.346;2023-05-07T10:46:18;33.75;;;15.00;;
65358;SDS011;52491;45.900;6.346;2023-05-07T10:51:29;26.83;;;14.93;;
65358;SDS011;52491;45.900;6.346;2023-05-07T10:56:34;31.35;;;15.57;;
65358;SDS011;52491;45.900;6.346;2023-05-07T11:01:56;28.27;;;11.95;;
65358;SDS011;52491;45.900;6.346;2023-05-07T11:04:23;38.47;;;13.70;;
65358;SDS011;52491;45.900;6.346;2023-05-07T11:15:04;27.10;;;12.57;;
65358;SDS011;52491;45.900;6.346;2023-05-07T11:17:31;24.88;;;11.70;;
65358;SDS011;52491;45.900;6.346;2023-05-07T11:19:59;32.42;;;12.65;;
65358;SDS011;52491;45.900;6.346;2023-05-07T11:24:55;25.88;;;11.48;;
65358;SDS011;52491;45.900;6.346;2023-05-07T11:27:25;26.23;;;10.38;;
65358;SDS011;52491;45.900;6.346;2023-05-07T11:29:51;25.38;;;10.80;;
65358;SDS011;52491;45.900;6.346;2023-05-07T11:32:38;24.40;;;11.43;;
65358;SDS011;52491;45.900;6.346;2023-05-07T11:35:03;22.17;;;10.25;;
65358;SDS011;52491;45.900;6.346;2023-05-07T11:37:29;22.65;;;9.27;;
65358;SDS011;52491;45.900;6.346;2023-05-07T11:40:05;25.92;;;10.25;;
65358;SDS011;52491;45.900;6.346;2023-05-07T11:42:39;24.70;;;8.88;;
65358;SDS011;52491;45.900;6.346;2023-05-07T11:45:07;23.45;;;10.00;;
65358;SDS011;52491;45.900;6.346;2023-05-07T11:47:34;18.83;;;8.90;;
65358;SDS011;52491;45.900;6.346;2023-05-07T11:50:03;14.38;;;8.27;;
65358;SDS011;52491;45.900;6.346;2023-05-07T11:52:30;22.52;;;7.70;;
65358;SDS011;52491;45.900;6.346;2023-05-07T11:54:58;15.32;;;8.23;;
65358;SDS011;52491;45.900;6.346;2023-05-07T11:57:25;22.10;;;9.43;;
65358;SDS011;52491;45.900;6.346;2023-05-07T11:59:55;17.05;;;7.88;;
65358;SDS011;52491;45.900;6.346;2023-05-07T12:02:21;19.25;;;8.27;;
65358;SDS011;52491;45.900;6.346;2023-05-07T12:04:47;14.38;;;7.25;;
65358;SDS011;52491;45.900;6.346;2023-05-07T12:07:13;15.98;;;7.65;;
65358;SDS011;52491;45.900;6.346;2023-05-07T12:09:40;20.13;;;8.57;;
65358;SDS011;52491;45.900;6.346;2023-05-07T12:12:06;18.02;;;7.15;;
65358;SDS011;52491;45.900;6.346;2023-05-07T12:14:32;20.67;;;8.43;;
65358;SDS011;52491;45.900;6.346;2023-05-07T12:17:01;13.77;;;7.43;;
65358;SDS011;52491;45.900;6.346;2023-05-07T12:19:28;23.23;;;7.75;;
65358;SDS011;52491;45.900;6.346;2023-05-07T12:21:55;14.15;;;7.10;;
65358;SDS011;52491;45.900;6.346;2023-05-07T12:24:21;15.43;;;7.38;;
65358;SDS011;52491;45.900;6.346;2023-05-07T12:26:47;18.42;;;7.65;;
65358;SDS011;52491;45.900;6.346;2023-05-07T12:29:13;18.92;;;7.35;;
65358;SDS011;52491;45.900;6.346;2023-05-07T12:31:42;11.95;;;6.53;;
65358;SDS011;52491;45.900;6.346;2023-05-07T12:34:14;16.63;;;6.95;;
65358;SDS011;52491;45.900;6.346;2023-05-07T12:36:42;13.50;;;6.88;;
65358;SDS011;52491;45.900;6.346;2023-05-07T12:39:08;14.82;;;6.22;;
65358;SDS011;52491;45.900;6.346;2023-05-07T12:41:54;15.15;;;6.97;;
65358;SDS011;52491;45.900;6.346;2023-05-07T12:44:22;12.68;;;6.32;;
65358;SDS011;52491;45.900;6.346;2023-05-07T12:46:49;13.85;;;5.97;;
65358;SDS011;52491;45.900;6.346;2023-05-07T12:49:14;11.27;;;6.05;;
65358;SDS011;52491;45.900;6.346;2023-05-07T12:51:40;18.60;;;7.32;;
65358;SDS011;52491;45.900;6.346;2023-05-07T12:54:06;14.65;;;5.72;;
65358;SDS011;52491;45.900;6.346;2023-05-07T12:56:35;12.73;;;6.45;;
65358;SDS011;52491;45.900;6.346;2023-05-07T12:59:01;21.23;;;5.47;;
65358;SDS011;52491;45.900;6.346;2023-05-07T13:01:30;16.67;;;6.60;;
65358;SDS011;52491;45.900;6.346;2023-05-07T13:04:00;11.15;;;5.35;;
65358;SDS011;52491;45.900;6.346;2023-05-07T13:06:26;11.68;;;5.55;;
65358;SDS011;52491;45.900;6.346;2023-05-07T13:08:51;8.65;;;5.45;;
65358;SDS011;52491;45.900;6.346;2023-05-07T13:11:17;14.50;;;6.20;;
65358;SDS011;52491;45.900;6.346;2023-05-07T13:13:42;11.13;;;5.97;;
65358;SDS011;52491;45.900;6.346;2023-05-07T13:16:09;12.20;;;5.05;;
65358;SDS011;52491;45.900;6.346;2023-05-07T13:18:37;12.57;;;5.50;;
65358;SDS011;52491;45.900;6.346;2023-05-07T13:21:03;16.77;;;5.70;;
65358;SDS011;52491;45.900;6.346;2023-05-07T13:23:29;13.02;;;4.88;;
65358;SDS011;52491;45.900;6.346;2023-05-07T13:25:55;12.73;;;4.18;;
65358;SDS011;52491;45.900;6.346;2023-05-07T13:28:21;12.23;;;4.90;;
65358;SDS011;52491;45.900;6.346;2023-05-07T13:30:48;11.93;;;4.78;;
65358;SDS011;52491;45.900;6.346;2023-05-07T13:33:14;13.82;;;5.10;;
65358;SDS011;52491;45.900;6.346;2023-05-07T13:35:41;8.18;;;5.03;;
65358;SDS011;52491;45.900;6.346;2023-05-07T13:38:06;13.85;;;5.28;;
65358;SDS011;52491;45.900;6.346;2023-05-07T13:40:32;7.93;;;4.32;;
65358;SDS011;52491;45.900;6.346;2023-05-07T13:42:58;9.73;;;4.75;;
65358;SDS011;52491;45.900;6.346;2023-05-07T13:45:26;12.02;;;5.60;;
65358;SDS011;52491;45.900;6.346;2023-05-07T13:47:54;5.32;;;3.28;;
65358;SDS011;52491;45.900;6.346;2023-05-07T13:50:20;11.68;;;4.88;;
65358;SDS011;52491;45.900;6.346;2023-05-07T13:52:46;11.10;;;5.43;;
65358;SDS011;52491;45.900;6.346;2023-05-07T13:55:18;11.50;;;4.47;;
65358;SDS011;52491;45.900;6.346;2023-05-07T13:57:45;8.20;;;4.03;;
65358;SDS011;52491;45.900;6.346;2023-05-07T14:00:12;11.80;;;4.57;;
65358;SDS011;52491;45.900;6.346;2023-05-07T14:02:39;8.68;;;4.10;;
65358;SDS011;52491;45.900;6.346;2023-05-07T14:05:05;5.80;;;4.22;;
65358;SDS011;52491;45.900;6.346;2023-05-07T14:07:31;10.57;;;4.95;;
65358;SDS011;52491;45.900;6.346;2023-05-07T14:09:57;6.35;;;4.00;;
65358;SDS011;52491;45.900;6.346;2023-05-07T14:12:22;11.77;;;4.45;;
65358;SDS011;52491;45.900;6.346;2023-05-07T14:14:48;7.28;;;3.85;;
65358;SDS011;52491;45.900;6.346;2023-05-07T14:17:16;12.73;;;4.47;;
65358;SDS011;52491;45.900;6.346;2023-05-07T14:19:42;9.23;;;4.53;;
65358;SDS011;52491;45.900;6.346;2023-05-07T14:22:08;10.05;;;4.30;;
65358;SDS011;52491;45.900;6.346;2023-05-07T14:24:34;8.35;;;3.80;;
65358;SDS011;52491;45.900;6.346;2023-05-07T14:26:59;6.20;;;2.90;;
65358;SDS011;52491;45.900;6.346;2023-05-07T14:29:25;5.30;;;2.30;;
65358;SDS011;52491;45.900;6.346;2023-05-07T14:31:50;6.47;;;3.03;;
65358;SDS011;52491;45.900;6.346;2023-05-07T14:34:16;6.32;;;3.47;;
65358;SDS011;52491;45.900;6.346;2023-05-07T14:36:41;6.80;;;2.70;;
65358;SDS011;52491;45.900;6.346;2023-05-07T14:39:08;8.73;;;3.38;;
65358;SDS011;52491;45.900;6.346;2023-05-07T14:41:34;6.35;;;3.20;;
65358;SDS011;52491;45.900;6.346;2023-05-07T14:44:00;5.53;;;3.10;;
65358;SDS011;52491;45.900;6.346;2023-05-07T14:46:26;8.05;;;3.10;;
65358;SDS011;52491;45.900;6.346;2023-05-07T14:48:52;7.72;;;3.53;;
65358;SDS011;52491;45.900;6.346;2023-05-07T14:51:18;4.43;;;2.45;;
65358;SDS011;52491;45.900;6.346;2023-05-07T14:53:43;5.28;;;2.95;;
65358;SDS011;52491;45.900;6.346;2023-05-07T14:56:10;8.73;;;2.90;;
65358;SDS011;52491;45.900;6.346;2023-05-07T14:58:35;6.38;;;2.92;;
65358;SDS011;52491;45.900;6.346;2023-05-07T15:01:01;5.70;;;3.25;;